Time;durP1;ratioP1;P1;durP2;ratioP2;P2;SDS_P1;SDS_P2;PMS_P1;PMS_P2;Temp;Humidity;BMP_temperature;BMP_pressure;BME280_temperature;BME280_humidity;BME280_pressure;Samples;Min_cycle;Max_cycle;Signal;HPM_P1;HPM_P2
2023/03/18 00:00:08;;;;;;;;;;;;;;;;;;4938772;29;19937;-79
2023/03/18 00:02:34;;;;;;;;;;;;;;;;;;4954985;29;19926;-78
2023/03/18 00:04:59;;;;;;;;;;;;;;;;;;4938462;29;19915;-78
2023/03/18 00:07:26;;;;;;;;;;;;;;;;;;4938791;29;19914;-78
2023/03/18 00:09:51;;;;;;;;;;;;;;;;;;4956084;29;19946;-78
2023/03/18 00:12:17;;;;;;;;;;;;;;;;;;4942827;29;19915;-78
2023/03/18 00:14:42;;;;;;;;;;;;;;;;;;4959742;29;19915;-89
2023/03/18 00:17:08;;;;;;;;;;;;;;;;;;4954543;23;21327;-80
2023/03/18 00:19:33;;;;;;;;;;;;;;;;;;4957987;28;19918;-80
2023/03/18 00:21:59;;;;;;;;;;;;;;;;;;4973925;28;19914;-80
2023/03/18 00:24:26;;;;;;;;;;;;;;;;;;4973536;28;19921;-83
2023/03/18 00:26:52;;;;;;;;;;;;;;;;;;4955671;28;20361;-83
2023/03/18 00:29:17;;;;;;;;;;;;;;;;;;4954033;28;19925;-83
2023/03/18 00:31:43;;;;;;;;;;;;;;;;;;4954091;29;19962;-83
2023/03/18 00:34:09;;;;;;;;;;;;;;;;;;4938088;29;19944;-83
2023/03/18 00:36:35;;;;;;;;;;;;;;;;;;4953895;28;20001;-83
2023/03/18 00:39:02;;;;;;;;;;;;;;;;;;4955046;28;20364;-84
2023/03/18 00:41:27;;;;;;;;;;;;;;;;;;4938101;29;19914;-83
2023/03/18 00:43:53;;;;;;;;;;;;;;;;;;4938046;29;19957;-84
2023/03/18 00:46:18;;;;;;;;;;;;;;;;;;4953900;29;19964;-83
2023/03/18 00:48:44;;;;;;;;;;;;;;;;;;4937888;29;19950;-84
2023/03/18 00:51:12;;;;;;;;;;;;;;;;;;4937855;29;20330;-83
2023/03/18 00:53:39;;;;;;;;;;;;;;;;;;4953682;29;19946;-82
2023/03/18 00:56:04;;;;;;;;;;;;;;;;;;4922173;29;19915;-84
2023/03/18 00:58:30;;;;;;;;;;;;;;;;;;4941318;29;19915;-83
2023/03/18 01:00:56;;;;;;;;;;;;;;;;;;4958102;28;19921;-84
2023/03/18 01:03:24;;;;;;;;;;;;;;;;;;4967995;28;19921;-85
2023/03/18 01:05:50;;;;;;;;;;;;;;;;;;4960652;29;19918;-84
2023/03/18 01:08:16;;;;;;;;;;;;;;;;;;4956684;28;19941;-84
2023/03/18 01:10:41;;;;;;;;;;;;;;;;;;4954742;29;19915;-84
2023/03/18 01:13:08;;;;;;;;;;;;;;;;;;4954581;28;20009;-85
2023/03/18 01:15:34;;;;;;;;;;;;;;;;;;4937277;29;20205;-82
2023/03/18 01:18:00;;;;;;;;;;;;;;;;;;4937512;29;19925;-90
2023/03/18 01:20:26;;;;;;;;;;;;;;;;;;4937474;29;19946;-88
2023/03/18 01:22:53;;;;;;;;;;;;;;;;;;4953300;28;20449;-85
2023/03/18 01:25:19;;;;;;;;;;;;;;;;;;4937408;29;20009;-85
2023/03/18 01:27:49;;;;;;;;;;;;;;;;;;4953147;28;19989;-86
2023/03/18 01:30:14;;;;;;;;;;;;;;;;;;4937243;29;20382;-86
2023/03/18 01:32:42;;;;;;;;;;;;;;;;;;4953161;28;20391;-86
2023/03/18 01:35:07;;;;;;;;;;;;;;;;;;4954245;28;19914;-86
2023/03/18 01:37:33;;;;;;;;;;;;;;;;;;4937004;29;19926;-85
2023/03/18 01:40:06;;;;;;;;;;;;;;;;;;4954291;28;19954;-84
2023/03/18 01:42:32;;;;;;;;;;;;;;;;;;4954303;28;19969;-85
2023/03/18 01:44:58;;;;;;;;;;;;;;;;;;4936473;29;20118;-86
2023/03/18 01:47:24;;;;;;;;;;;;;;;;;;4937121;29;19915;-84
2023/03/18 01:49:52;;;;;;;;;;;;;;;;;;4952751;28;19924;-86
2023/03/18 01:52:17;;;;;;;;;;;;;;;;;;4937259;29;19915;-85
2023/03/18 01:54:43;;;;;;;;;;;;;;;;;;4937053;29;19921;-83
2023/03/18 01:57:09;;;;;;;;;;;;;;;;;;4937046;29;20304;-80
2023/03/18 01:59:34;;;;;;;;;;;;;;;;;;4939069;29;20374;-86
2023/03/18 02:02:00;;;;;;;;;;;;;;;;;;4930001;28;19914;-87
2023/03/18 02:04:27;;;;;;;;;;;;;;;;;;4923543;29;19921;-87
2023/03/18 02:06:53;;;;;;;;;;;;;;;;;;4909784;28;19950;-81
2023/03/18 02:09:18;;;;;;;;;;;;;;;;;;4924579;29;19988;-85
2023/03/18 02:11:44;;;;;;;;;;;;;;;;;;4964761;28;19973;-77
2023/03/18 02:14:13;;;;;;;;;;;;;;;;;;4972326;28;19914;-78
2023/03/18 02:16:38;;;;;;;;;;;;;;;;;;4963922;28;19993;-75
2023/03/18 02:19:04;;;;;;;;;;;;;;;;;;4956396;28;20251;-78
2023/03/18 02:21:29;;;;;;;;;;;;;;;;;;4956434;28;19921;-80
2023/03/18 02:23:55;;;;;;;;;;;;;;;;;;4940278;29;19921;-78
2023/03/18 02:26:21;;;;;;;;;;;;;;;;;;4940156;29;20378;-76
2023/03/18 02:28:47;;;;;;;;;;;;;;;;;;4924656;29;19918;-79
2023/03/18 02:31:12;;;;;;;;;;;;;;;;;;4956431;29;20298;-80
2023/03/18 02:33:39;;;;;;;;;;;;;;;;;;4956289;28;19918;-79
2023/03/18 02:36:05;;;;;;;;;;;;;;;;;;4957321;29;19961;-81
2023/03/18 02:38:34;;;;;;;;;;;;;;;;;;4924986;29;19915;-80
2023/03/18 02:41:00;;;;;;;;;;;;;;;;;;4940248;29;19915;-76
2023/03/18 02:43:35;;;;;;;;;;;;;;;;;;4940100;29;19915;-78
2023/03/18 02:46:05;;;;;;;;;;;;;;;;;;4955898;28;20392;-79
2023/03/18 02:48:32;;;;;;;;;;;;;;;;;;4956030;28;19918;-78
2023/03/18 02:50:57;;;;;;;;;;;;;;;;;;4939801;29;20305;-76
2023/03/18 02:53:23;;;;;;;;;;;;;;;;;;4957193;29;19915;-78
2023/03/18 02:55:48;;;;;;;;;;;;;;;;;;4955775;29;20005;-76
2023/03/18 02:58:14;;;;;;;;;;;;;;;;;;4955700;28;19921;-78
2023/03/18 03:00:40;;;;;;;;;;;;;;;;;;4955714;28;20001;-78
2023/03/18 03:03:05;;;;;;;;;;;;;;;;;;4947593;29;20065;-77
2023/03/18 03:05:31;;;;;;;;;;;;;;;;;;4943222;29;20358;-78
2023/03/18 03:07:57;;;;;;;;;;;;;;;;;;4939515;29;19968;-76
2023/03/18 03:10:22;;;;;;;;;;;;;;;;;;4922996;29;19942;-78
2023/03/18 03:12:48;;;;;;;;;;;;;;;;;;4939356;29;19965;-77
2023/03/18 03:15:15;;;;;;;;;;;;;;;;;;4939707;29;19915;-77
2023/03/18 03:17:47;;;;;;;;;;;;;;;;;;4939246;29;19958;-78
2023/03/18 03:20:17;;;;;;;;;;;;;;;;;;4970732;28;19914;-79
2023/03/18 03:22:42;;;;;;;;;;;;;;;;;;4938435;29;19921;-78
2023/03/18 03:25:07;;;;;;;;;;;;;;;;;;4954310;29;19911;-78
2023/03/18 03:27:33;;;;;;;;;;;;;;;;;;4954206;28;19915;-76
2023/03/18 03:29:59;;;;;;;;;;;;;;;;;;4954012;29;19922;-78
2023/03/18 03:32:25;;;;;;;;;;;;;;;;;;4955350;28;20469;-76
2023/03/18 03:34:51;;;;;;;;;;;;;;;;;;4955016;28;19954;-78
2023/03/18 03:37:16;;;;;;;;;;;;;;;;;;4954188;29;19915;-76
2023/03/18 03:39:43;;;;;;;;;;;;;;;;;;4937937;29;19922;-78
2023/03/18 03:42:09;;;;;;;;;;;;;;;;;;4986327;28;19925;-75
2023/03/18 03:44:35;;;;;;;;;;;;;;;;;;4955123;28;19922;-80
2023/03/18 03:47:00;;;;;;;;;;;;;;;;;;4954065;29;19914;-78
2023/03/18 03:49:26;;;;;;;;;;;;;;;;;;4986005;28;19927;-78
2023/03/18 03:51:51;;;;;;;;;;;;;;;;;;4953883;28;19915;-77
2023/03/18 03:54:18;;;;;;;;;;;;;;;;;;4970032;28;19922;-77
2023/03/18 03:56:44;;;;;;;;;;;;;;;;;;4954740;28;20011;-77
2023/03/18 03:59:10;;;;;;;;;;;;;;;;;;4937749;29;20273;-77
2023/03/18 04:01:54;;;;;;;;;;;;;;;;;;4958387;28;19918;-77
2023/03/18 04:04:20;;;;;;;;;;;;;;;;;;4961475;28;20421;-78
2023/03/18 04:06:45;;;;;;;;;;;;;;;;;;4921770;29;19914;-77
2023/03/18 04:09:11;;;;;;;;;;;;;;;;;;4953655;29;19958;-78
2023/03/18 04:11:36;;;;;;;;;;;;;;;;;;4985805;28;19914;-77
2023/03/18 04:14:02;;;;;;;;;;;;;;;;;;4922177;29;20013;-77
2023/03/18 04:16:27;;;;;;;;;;;;;;;;;;4937534;29;19921;-78
2023/03/18 04:18:53;;;;;;;;;;;;;;;;;;4890558;29;1842045;-75
2023/03/18 04:21:22;;;;;;;;;;;;;;;;;;4938427;28;19965;-80
2023/03/18 04:23:52;;;;;;;;;;;;;;;;;;4986462;28;20401;-80
2023/03/18 04:26:18;;;;;;;;;;;;;;;;;;4953877;28;20277;-78
2023/03/18 04:28:43;;;;;;;;;;;;;;;;;;4953978;29;19918;-76
2023/03/18 04:31:12;;;;;;;;;;;;;;;;;;4954082;28;19925;-78
2023/03/18 04:33:37;;;;;;;;;;;;;;;;;;4986384;28;20005;-78
2023/03/18 04:36:03;;;;;;;;;;;;;;;;;;4937871;29;20001;-78
2023/03/18 04:38:28;;;;;;;;;;;;;;;;;;4954014;28;19918;-78
2023/03/18 04:40:54;;;;;;;;;;;;;;;;;;4938063;29;20023;-79
2023/03/18 04:43:19;;;;;;;;;;;;;;;;;;4953986;28;19969;-76
2023/03/18 04:45:47;;;;;;;;;;;;;;;;;;4953690;29;19921;-77
2023/03/18 04:48:13;;;;;;;;;;;;;;;;;;4953718;29;19915;-77
2023/03/18 04:50:40;;;;;;;;;;;;;;;;;;4953795;29;20417;-79
2023/03/18 04:53:08;;;;;;;;;;;;;;;;;;4922388;29;20386;-79
2023/03/18 04:55:35;;;;;;;;;;;;;;;;;;4937855;29;19921;-78
2023/03/18 04:58:02;;;;;;;;;;;;;;;;;;4969788;28;19914;-81
2023/03/18 05:00:31;;;;;;;;;;;;;;;;;;4937728;29;19970;-79
2023/03/18 05:03:09;;;;;;;;;;;;;;;;;;4941301;29;20010;-82
2023/03/18 05:05:35;;;;;;;;;;;;;;;;;;4957577;28;20005;-82
2023/03/18 05:08:01;;;;;;;;;;;;;;;;;;4953503;28;19914;-80
2023/03/18 05:10:26;;;;;;;;;;;;;;;;;;4985582;28;19914;-78
2023/03/18 05:12:52;;;;;;;;;;;;;;;;;;4937668;29;20358;-77
2023/03/18 05:15:26;;;;;;;;;;;;;;;;;;4985708;28;19915;-81
2023/03/18 05:17:54;;;;;;;;;;;;;;;;;;4969400;28;19929;-77
2023/03/18 05:20:19;;;;;;;;;;;;;;;;;;4953248;29;20391;-78
2023/03/18 05:22:45;;;;;;;;;;;;;;;;;;4953359;29;20129;-78
2023/03/18 05:25:24;;;;;;;;;;;;;;;;;;4953023;29;19922;-78
2023/03/18 05:27:50;;;;;;;;;;;;;;;;;;4969399;28;20146;-79
2023/03/18 05:30:25;;;;;;;;;;;;;;;;;;4953127;29;19970;-81
2023/03/18 05:32:52;;;;;;;;;;;;;;;;;;4937441;28;19922;-79
2023/03/18 05:35:20;;;;;;;;;;;;;;;;;;4984552;28;19990;-77
2023/03/18 05:37:51;;;;;;;;;;;;;;;;;;4954231;28;19921;-79
2023/03/18 05:40:17;;;;;;;;;;;;;;;;;;4953105;29;19914;-77
2023/03/18 05:42:54;;;;;;;;;;;;;;;;;;4938877;29;19969;-77
2023/03/18 05:45:20;;;;;;;;;;;;;;;;;;4953049;29;20386;-77
2023/03/18 05:47:51;;;;;;;;;;;;;;;;;;4937243;29;20101;-77
2023/03/18 05:50:17;;;;;;;;;;;;;;;;;;4968891;28;20005;-79
2023/03/18 05:52:42;;;;;;;;;;;;;;;;;;4953467;28;19915;-77
2023/03/18 05:55:15;;;;;;;;;;;;;;;;;;4968829;28;19915;-77
2023/03/18 05:57:42;;;;;;;;;;;;;;;;;;4953989;29;19946;-78
2023/03/18 06:00:08;;;;;;;;;;;;;;;;;;4958201;29;19915;-77
2023/03/18 06:02:48;;;;;;;;;;;;;;;;;;4957480;28;19915;-77
2023/03/18 06:05:15;;;;;;;;;;;;;;;;;;4971069;28;19918;-76
2023/03/18 06:07:41;;;;;;;;;;;;;;;;;;4954827;28;20314;-77
2023/03/18 06:10:07;;;;;;;;;;;;;;;;;;4938453;29;19914;-76
2023/03/18 06:12:33;;;;;;;;;;;;;;;;;;4954318;29;19941;-79
2023/03/18 06:14:58;;;;;;;;;;;;;;;;;;4937376;29;19918;-78
2023/03/18 06:17:24;;;;;;;;;;;;;;;;;;4949218;23;19989;-76
2023/03/18 06:19:50;;;;;;;;;;;;;;;;;;4956292;28;20009;-77
2023/03/18 06:22:17;;;;;;;;;;;;;;;;;;4956505;28;19953;-77
2023/03/18 06:24:42;;;;;;;;;;;;;;;;;;4940159;28;19918;-77
2023/03/18 06:27:08;;;;;;;;;;;;;;;;;;4955861;28;19914;-77
2023/03/18 06:29:34;;;;;;;;;;;;;;;;;;4956083;28;19926;-77
2023/03/18 06:32:07;;;;;;;;;;;;;;;;;;4924994;28;19917;-77
2023/03/18 06:34:33;;;;;;;;;;;;;;;;;;4924461;28;20008;-77
2023/03/18 06:36:59;;;;;;;;;;;;;;;;;;4939856;28;19914;-75
2023/03/18 06:39:26;;;;;;;;;;;;;;;;;;4955845;28;19914;-77
2023/03/18 06:41:53;;;;;;;;;;;;;;;;;;4956927;28;19953;-78
2023/03/18 06:44:29;;;;;;;;;;;;;;;;;;4941716;28;19918;-77
2023/03/18 06:46:59;;;;;;;;;;;;;;;;;;4959295;28;19968;-77
2023/03/18 06:49:24;;;;;;;;;;;;;;;;;;4943507;28;20004;-77
2023/03/18 06:51:56;;;;;;;;;;;;;;;;;;4959438;28;19954;-77
2023/03/18 06:54:22;;;;;;;;;;;;;;;;;;4959469;28;19953;-77
2023/03/18 06:56:47;;;;;;;;;;;;;;;;;;4959496;28;19980;-77
2023/03/18 06:59:16;;;;;;;;;;;;;;;;;;4927971;28;19942;-77
2023/03/18 07:01:43;;;;;;;;;;;;;;;;;;4939414;28;19933;-78
2023/03/18 07:04:10;;;;;;;;;;;;;;;;;;4960311;28;19915;-78
2023/03/18 07:06:35;;;;;;;;;;;;;;;;;;4960111;28;19969;-78
2023/03/18 07:09:01;;;;;;;;;;;;;;;;;;4960900;28;20437;-77
2023/03/18 07:11:27;;;;;;;;;;;;;;;;;;4960210;28;19946;-77
2023/03/18 07:13:53;;;;;;;;;;;;;;;;;;4940782;29;19919;-77
2023/03/18 07:16:25;;;;;;;;;;;;;;;;;;4957285;28;19918;-78
2023/03/18 07:18:51;;;;;;;;;;;;;;;;;;4958948;28;19964;-76
2023/03/18 07:21:16;;;;;;;;;;;;;;;;;;4958624;28;20075;-77
2023/03/18 07:23:42;;;;;;;;;;;;;;;;;;4959358;28;19984;-77
2023/03/18 07:26:07;;;;;;;;;;;;;;;;;;4942773;28;19914;-76
2023/03/18 07:28:33;;;;;;;;;;;;;;;;;;4975736;28;20435;-77
2023/03/18 07:30:58;;;;;;;;;;;;;;;;;;4958575;28;19964;-76
2023/03/18 07:33:24;;;;;;;;;;;;;;;;;;4975904;28;19914;-77
2023/03/18 07:35:49;;;;;;;;;;;;;;;;;;4958222;28;19918;-77
2023/03/18 07:38:16;;;;;;;;;;;;;;;;;;4976202;28;19915;-77
2023/03/18 07:40:42;;;;;;;;;;;;;;;;;;4977742;28;19937;-77
2023/03/18 07:43:08;;;;;;;;;;;;;;;;;;4977078;28;19914;-77
2023/03/18 07:45:33;;;;;;;;;;;;;;;;;;4927790;28;19914;-77
2023/03/18 07:47:59;;;;;;;;;;;;;;;;;;4959863;28;19914;-77
2023/03/18 07:50:24;;;;;;;;;;;;;;;;;;4977083;28;19917;-77
2023/03/18 07:52:50;;;;;;;;;;;;;;;;;;4976882;28;20377;-78
2023/03/18 07:55:16;;;;;;;;;;;;;;;;;;4959202;28;19961;-77
2023/03/18 07:57:41;;;;;;;;;;;;;;;;;;4974717;28;19918;-78
2023/03/18 08:00:07;;;;;;;;;;;;;;;;;;4958404;28;19973;-78
2023/03/18 08:02:38;;;;;;;;;;;;;;;;;;4959302;28;19927;-78
2023/03/18 08:05:05;;;;;;;;;;;;;;;;;;4975290;28;20006;-77
2023/03/18 08:07:31;;;;;;;;;;;;;;;;;;4975481;28;20378;-77
2023/03/18 08:09:56;;;;;;;;;;;;;;;;;;4941845;28;19960;-77
2023/03/18 08:12:21;;;;;;;;;;;;;;;;;;4957972;28;19971;-77
2023/03/18 08:14:47;;;;;;;;;;;;;;;;;;4958023;28;19914;-78
2023/03/18 08:17:12;;;;;;;;;;;;;;;;;;4958046;28;19933;-78
2023/03/18 08:19:38;;;;;;;;;;;;;;;;;;4967581;28;19926;-78
2023/03/18 08:22:03;;;;;;;;;;;;;;;;;;4975601;28;19914;-78
2023/03/18 08:24:29;;;;;;;;;;;;;;;;;;4941830;28;19929;-77
2023/03/18 08:26:54;;;;;;;;;;;;;;;;;;4942213;28;19945;-78
2023/03/18 08:29:20;;;;;;;;;;;;;;;;;;4975778;28;20320;-77
2023/03/18 08:31:45;;;;;;;;;;;;;;;;;;4958263;28;19941;-78
2023/03/18 08:34:11;;;;;;;;;;;;;;;;;;4958383;28;19920;-78
2023/03/18 08:36:36;;;;;;;;;;;;;;;;;;4976041;28;19918;-78
2023/03/18 08:39:01;;;;;;;;;;;;;;;;;;4943926;28;19925;-77
2023/03/18 08:41:27;;;;;;;;;;;;;;;;;;4983101;28;20013;-78
2023/03/18 08:43:54;;;;;;;;;;;;;;;;;;4958166;28;19918;-79
2023/03/18 08:46:19;;;;;;;;;;;;;;;;;;4988135;28;19914;-78
2023/03/18 08:48:45;;;;;;;;;;;;;;;;;;4965703;28;19918;-78
2023/03/18 08:51:10;;;;;;;;;;;;;;;;;;4967667;28;20371;-79
2023/03/18 08:53:36;;;;;;;;;;;;;;;;;;4985107;28;19949;-79
2023/03/18 08:56:02;;;;;;;;;;;;;;;;;;4987769;28;19914;-78
2023/03/18 08:58:27;;;;;;;;;;;;;;;;;;4984064;28;20456;-77
2023/03/18 09:00:53;;;;;;;;;;;;;;;;;;4978203;28;19981;-78
2023/03/18 09:03:18;;;;;;;;;;;;;;;;;;4942284;28;19944;-78
2023/03/18 09:05:44;;;;;;;;;;;;;;;;;;4956921;28;19922;-78
2023/03/18 09:08:09;;;;;;;;;;;;;;;;;;4974188;28;19961;-78
2023/03/18 09:10:35;;;;;;;;;;;;;;;;;;4989401;28;19969;-78
2023/03/18 09:13:00;;;;;;;;;;;;;;;;;;4958922;28;19920;-78
2023/03/18 09:15:26;;;;;;;;;;;;;;;;;;4958267;28;20045;-78
2023/03/18 09:17:52;;;;;;;;;;;;;;;;;;4974061;28;19941;-78
2023/03/18 09:20:17;;;;;;;;;;;;;;;;;;4975646;28;19949;-78
2023/03/18 09:22:43;;;;;;;;;;;;;;;;;;4941856;28;20282;-77
2023/03/18 09:25:08;;;;;;;;;;;;;;;;;;4989786;28;19921;-78
2023/03/18 09:27:34;;;;;;;;;;;;;;;;;;4974302;28;20373;-77
2023/03/18 09:29:59;;;;;;;;;;;;;;;;;;4974197;28;19918;-77
2023/03/18 09:32:24;;;;;;;;;;;;;;;;;;4957166;28;19914;-77
2023/03/18 09:34:50;;;;;;;;;;;;;;;;;;4940846;28;19918;-78
2023/03/18 09:37:17;;;;;;;;;;;;;;;;;;4973775;28;19976;-78
2023/03/18 09:39:42;;;;;;;;;;;;;;;;;;4956503;28;19914;-77
2023/03/18 09:42:08;;;;;;;;;;;;;;;;;;4988811;28;20354;-78
2023/03/18 09:44:33;;;;;;;;;;;;;;;;;;4941132;28;19914;-78
2023/03/18 09:46:59;;;;;;;;;;;;;;;;;;4957126;28;19914;-79
2023/03/18 09:49:24;;;;;;;;;;;;;;;;;;4990001;28;19914;-78
2023/03/18 09:51:50;;;;;;;;;;;;;;;;;;4988388;28;20098;-79
2023/03/18 09:54:15;;;;;;;;;;;;;;;;;;4956261;28;19964;-78
2023/03/18 09:56:41;;;;;;;;;;;;;;;;;;4973030;28;19933;-77
2023/03/18 09:59:07;;;;;;;;;;;;;;;;;;4956024;28;19914;-78
2023/03/18 10:01:33;;;;;;;;;;;;;;;;;;4968694;28;20310;-78
2023/03/18 10:03:59;;;;;;;;;;;;;;;;;;4973071;28;19922;-77
2023/03/18 10:06:25;;;;;;;;;;;;;;;;;;4955648;28;19925;-77
2023/03/18 10:08:50;;;;;;;;;;;;;;;;;;4951820;28;19922;-77
2023/03/18 10:11:15;;;;;;;;;;;;;;;;;;4964105;28;20370;-77
2023/03/18 10:13:41;;;;;;;;;;;;;;;;;;4972754;28;20370;-77
2023/03/18 10:16:06;;;;;;;;;;;;;;;;;;4958951;28;20386;-77
2023/03/18 10:18:32;;;;;;;;;;;;;;;;;;4954052;28;19922;-77
2023/03/18 10:20:57;;;;;;;;;;;;;;;;;;4957730;28;19923;-77
2023/03/18 10:23:23;;;;;;;;;;;;;;;;;;4976870;28;20550;-78
2023/03/18 10:25:48;;;;;;;;;;;;;;;;;;4959633;28;19922;-78
2023/03/18 10:28:17;;;;;;;;;;;;;;;;;;4963316;28;19914;-78
2023/03/18 10:30:42;;;;;;;;;;;;;;;;;;4957526;29;19965;-78
2023/03/18 10:33:07;;;;;;;;;;;;;;;;;;4940257;29;20394;-78
2023/03/18 10:35:33;;;;;;;;;;;;;;;;;;4940377;29;19915;-77
2023/03/18 10:37:58;;;;;;;;;;;;;;;;;;4957305;28;19955;-77
2023/03/18 10:40:45;;;;;;;;;;;;;;;;;;4957405;29;20398;-78
2023/03/18 10:43:09;;;;;;;;;;;;;;;;;;4956786;29;20390;-78
2023/03/18 10:45:34;;;;;;;;;;;;;;;;;;4957095;29;19922;-77
2023/03/18 10:48:00;;;;;;;;;;;;;;;;;;4956962;28;20347;-76
2023/03/18 10:50:27;;;;;;;;;;;;;;;;;;4956894;29;20048;-77
2023/03/18 10:52:53;;;;;;;;;;;;;;;;;;4923842;29;19919;-77
2023/03/18 10:55:19;;;;;;;;;;;;;;;;;;4956850;29;19922;-76
2023/03/18 10:57:45;;;;;;;;;;;;;;;;;;4956904;28;19910;-76
2023/03/18 11:00:10;;;;;;;;;;;;;;;;;;4939832;29;19941;-78
2023/03/18 11:02:37;;;;;;;;;;;;;;;;;;4939584;29;19915;-78
2023/03/18 11:05:05;;;;;;;;;;;;;;;;;;4970297;28;19992;-76
2023/03/18 11:07:31;;;;;;;;;;;;;;;;;;4939130;29;19925;-77
2023/03/18 11:09:56;;;;;;;;;;;;;;;;;;4964517;28;20300;-78
2023/03/18 11:12:22;;;;;;;;;;;;;;;;;;4958943;28;19918;-77
2023/03/18 11:14:47;;;;;;;;;;;;;;;;;;4958499;28;19914;-77
2023/03/18 11:17:13;;;;;;;;;;;;;;;;;;4958653;28;20017;-77
2023/03/18 11:19:40;;;;;;;;;;;;;;;;;;4975828;28;19924;-77
2023/03/18 11:22:05;;;;;;;;;;;;;;;;;;4958659;28;19993;-77
2023/03/18 11:24:43;;;;;;;;;;;;;;;;;;4958381;28;20400;-78
2023/03/18 11:27:09;;;;;;;;;;;;;;;;;;4975759;28;19914;-77
2023/03/18 11:29:35;;;;;;;;;;;;;;;;;;4942288;28;19969;-76
2023/03/18 11:32:03;;;;;;;;;;;;;;;;;;4974636;28;19914;-77
2023/03/18 11:34:28;;;;;;;;;;;;;;;;;;4958275;28;20289;-77
2023/03/18 11:36:54;;;;;;;;;;;;;;;;;;4975802;28;19914;-76
2023/03/18 11:39:20;;;;;;;;;;;;;;;;;;4975806;28;19914;-76
2023/03/18 11:41:45;;;;;;;;;;;;;;;;;;4976023;28;19915;-77
2023/03/18 11:44:11;;;;;;;;;;;;;;;;;;4975620;28;20421;-77
2023/03/18 11:46:37;;;;;;;;;;;;;;;;;;4975497;28;19914;-77
2023/03/18 11:49:02;;;;;;;;;;;;;;;;;;4975550;28;20072;-77
2023/03/18 11:51:28;;;;;;;;;;;;;;;;;;4976041;28;19945;-77
2023/03/18 11:53:53;;;;;;;;;;;;;;;;;;4958574;28;19992;-76
2023/03/18 11:56:19;;;;;;;;;;;;;;;;;;4975689;28;19915;-77
2023/03/18 11:58:45;;;;;;;;;;;;;;;;;;4975416;28;19969;-77
2023/03/18 12:01:10;;;;;;;;;;;;;;;;;;4958456;28;19925;-76
2023/03/18 12:03:36;;;;;;;;;;;;;;;;;;4974066;28;20286;-76
2023/03/18 12:06:02;;;;;;;;;;;;;;;;;;4958049;28;20281;-77
2023/03/18 12:08:28;;;;;;;;;;;;;;;;;;4976384;28;20289;-76
2023/03/18 12:10:54;;;;;;;;;;;;;;;;;;4959232;28;19918;-77
2023/03/18 12:13:20;;;;;;;;;;;;;;;;;;4991697;28;20009;-77
2023/03/18 12:15:46;;;;;;;;;;;;;;;;;;4977391;28;20412;-77
2023/03/18 12:18:11;;;;;;;;;;;;;;;;;;5002574;23;19962;-81
2023/03/18 12:20:41;;;;;;;;;;;;;;;;;;4954670;28;19919;-82
2023/03/18 12:23:07;;;;;;;;;;;;;;;;;;4993853;28;19921;-84
2023/03/18 12:25:32;;;;;;;;;;;;;;;;;;4968745;28;19957;-82
2023/03/18 12:27:57;;;;;;;;;;;;;;;;;;4980450;28;19913;-81
2023/03/18 12:30:23;;;;;;;;;;;;;;;;;;4962649;28;19927;-83
2023/03/18 12:32:49;;;;;;;;;;;;;;;;;;4979162;29;19914;-83
2023/03/18 12:35:18;;;;;;;;;;;;;;;;;;4958767;29;19925;-82
2023/03/18 12:37:43;;;;;;;;;;;;;;;;;;4943172;28;19949;-83
2023/03/18 12:40:11;;;;;;;;;;;;;;;;;;4952498;29;19923;-85
2023/03/18 12:42:37;;;;;;;;;;;;;;;;;;4934293;28;19910;-85
2023/03/18 12:45:04;;;;;;;;;;;;;;;;;;4933051;29;19914;-86
2023/03/18 12:47:30;;;;;;;;;;;;;;;;;;4943189;29;19914;-85
2023/03/18 12:49:56;;;;;;;;;;;;;;;;;;4940755;29;19925;-85
2023/03/18 12:52:21;;;;;;;;;;;;;;;;;;4924045;29;19915;-85
2023/03/18 12:54:47;;;;;;;;;;;;;;;;;;4923261;29;20113;-84
2023/03/18 12:57:14;;;;;;;;;;;;;;;;;;4956403;29;19957;-83
2023/03/18 12:59:39;;;;;;;;;;;;;;;;;;4941807;29;19925;-85
2023/03/18 13:02:05;;;;;;;;;;;;;;;;;;4939713;29;19919;-85
2023/03/18 13:04:31;;;;;;;;;;;;;;;;;;4956914;28;20413;-84
2023/03/18 13:06:56;;;;;;;;;;;;;;;;;;4977145;28;19942;-82
2023/03/18 13:09:22;;;;;;;;;;;;;;;;;;4928889;28;19924;-84
2023/03/18 13:11:49;;;;;;;;;;;;;;;;;;4944396;28;20255;-84
2023/03/18 13:14:14;;;;;;;;;;;;;;;;;;4977295;28;19925;-85
2023/03/18 13:16:40;;;;;;;;;;;;;;;;;;4991361;28;19914;-84
2023/03/18 13:19:05;;;;;;;;;;;;;;;;;;4946104;28;19918;-87
2023/03/18 13:21:31;;;;;;;;;;;;;;;;;;4931132;28;19914;-84
2023/03/18 13:23:56;;;;;;;;;;;;;;;;;;4945388;28;20377;-83
2023/03/18 13:26:22;;;;;;;;;;;;;;;;;;4957216;28;19985;-84
2023/03/18 13:28:47;;;;;;;;;;;;;;;;;;4993521;28;19917;-83
2023/03/18 13:31:13;;;;;;;;;;;;;;;;;;4973970;28;19941;-83
2023/03/18 13:33:38;;;;;;;;;;;;;;;;;;4973770;28;20285;-83
2023/03/18 13:36:07;;;;;;;;;;;;;;;;;;4973812;28;20338;-81
2023/03/18 13:38:32;;;;;;;;;;;;;;;;;;4988847;28;19921;-83
2023/03/18 13:40:58;;;;;;;;;;;;;;;;;;4956870;28;19914;-84
2023/03/18 13:43:23;;;;;;;;;;;;;;;;;;4974601;28;20341;-84
2023/03/18 13:45:49;;;;;;;;;;;;;;;;;;4940487;28;19914;-83
2023/03/18 13:48:15;;;;;;;;;;;;;;;;;;4988905;28;19972;-81
2023/03/18 13:50:41;;;;;;;;;;;;;;;;;;4973495;28;19993;-82
2023/03/18 13:53:07;;;;;;;;;;;;;;;;;;4940713;28;20316;-82
2023/03/18 13:55:40;;;;;;;;;;;;;;;;;;4973535;28;19914;-82
2023/03/18 13:58:24;;;;;;;;;;;;;;;;;;4956727;28;19954;-84
2023/03/18 14:00:58;;;;;;;;;;;;;;;;;;4989016;28;20382;-85
2023/03/18 14:03:23;;;;;;;;;;;;;;;;;;4939235;28;19914;-85
2023/03/18 14:05:50;;;;;;;;;;;;;;;;;;4920806;29;19915;-86
2023/03/18 14:08:16;;;;;;;;;;;;;;;;;;4940532;28;19933;-85
2023/03/18 14:10:41;;;;;;;;;;;;;;;;;;4940903;28;20287;-85
2023/03/18 14:13:12;;;;;;;;;;;;;;;;;;4989495;28;19914;-84
2023/03/18 14:15:38;;;;;;;;;;;;;;;;;;4974266;28;19914;-85
2023/03/18 14:18:03;;;;;;;;;;;;;;;;;;4957037;28;19914;-85
2023/03/18 14:20:29;;;;;;;;;;;;;;;;;;4973900;28;19965;-86
2023/03/18 14:22:54;;;;;;;;;;;;;;;;;;4941055;28;20374;-84
2023/03/18 14:25:20;;;;;;;;;;;;;;;;;;4975671;28;19914;-85
2023/03/18 14:27:46;;;;;;;;;;;;;;;;;;4956684;28;19915;-85
2023/03/18 14:30:13;;;;;;;;;;;;;;;;;;4940719;28;19918;-85
2023/03/18 14:32:38;;;;;;;;;;;;;;;;;;4956777;28;19929;-85
2023/03/18 14:35:06;;;;;;;;;;;;;;;;;;4974388;28;19914;-85
2023/03/18 14:37:38;;;;;;;;;;;;;;;;;;4957253;28;20008;-85
2023/03/18 14:40:04;;;;;;;;;;;;;;;;;;4941672;28;19929;-85
2023/03/18 14:42:30;;;;;;;;;;;;;;;;;;4943352;28;19914;-86
2023/03/18 14:44:56;;;;;;;;;;;;;;;;;;4958156;28;19937;-85
2023/03/18 14:47:21;;;;;;;;;;;;;;;;;;4959682;28;19922;-85
2023/03/18 14:49:50;;;;;;;;;;;;;;;;;;4960026;28;19918;-85
2023/03/18 14:52:15;;;;;;;;;;;;;;;;;;4964590;28;19914;-84
2023/03/18 14:54:41;;;;;;;;;;;;;;;;;;4964884;28;19914;-84
2023/03/18 14:57:08;;;;;;;;;;;;;;;;;;4966853;28;19914;-82
2023/03/18 14:59:36;;;;;;;;;;;;;;;;;;5004639;28;19925;-84
2023/03/18 15:02:04;;;;;;;;;;;;;;;;;;5008998;28;19914;-84
2023/03/18 15:04:29;;;;;;;;;;;;;;;;;;4990873;28;19914;-82
2023/03/18 15:06:57;;;;;;;;;;;;;;;;;;4972990;28;20424;-85
2023/03/18 15:09:24;;;;;;;;;;;;;;;;;;4977597;28;19981;-84
2023/03/18 15:11:49;;;;;;;;;;;;;;;;;;5010512;28;19917;-84
2023/03/18 15:14:15;;;;;;;;;;;;;;;;;;4973536;28;19918;-84
2023/03/18 15:16:41;;;;;;;;;;;;;;;;;;5000739;28;19914;-83
2023/03/18 15:19:06;;;;;;;;;;;;;;;;;;4948892;28;19953;-84
2023/03/18 15:21:33;;;;;;;;;;;;;;;;;;4979647;28;20340;-85
2023/03/18 15:23:59;;;;;;;;;;;;;;;;;;4946519;28;20298;-84
2023/03/18 15:26:25;;;;;;;;;;;;;;;;;;4993976;28;19926;-84
2023/03/18 15:28:51;;;;;;;;;;;;;;;;;;4961056;28;20020;-83
2023/03/18 15:31:17;;;;;;;;;;;;;;;;;;4944708;28;20366;-84
2023/03/18 15:33:42;;;;;;;;;;;;;;;;;;4959919;28;19914;-84
2023/03/18 15:36:08;;;;;;;;;;;;;;;;;;4944201;28;19918;-83
2023/03/18 15:38:33;;;;;;;;;;;;;;;;;;4977802;28;20000;-85
2023/03/18 15:40:59;;;;;;;;;;;;;;;;;;4993285;28;19915;-83
2023/03/18 15:43:25;;;;;;;;;;;;;;;;;;4930075;28;19933;-83
2023/03/18 15:45:51;;;;;;;;;;;;;;;;;;4964258;28;19914;-83
2023/03/18 15:48:16;;;;;;;;;;;;;;;;;;4978912;28;19925;-85
2023/03/18 15:50:42;;;;;;;;;;;;;;;;;;4963537;28;19956;-85
2023/03/18 15:53:08;;;;;;;;;;;;;;;;;;4964415;28;20259;-84
2023/03/18 15:55:33;;;;;;;;;;;;;;;;;;4981290;28;19914;-84
2023/03/18 15:57:59;;;;;;;;;;;;;;;;;;4980150;28;20267;-83
2023/03/18 16:00:24;;;;;;;;;;;;;;;;;;4962548;28;19938;-82
2023/03/18 16:02:50;;;;;;;;;;;;;;;;;;4983682;28;20318;-84
2023/03/18 16:05:15;;;;;;;;;;;;;;;;;;4982946;28;20013;-85
2023/03/18 16:07:40;;;;;;;;;;;;;;;;;;4988010;28;19977;-84
2023/03/18 16:10:07;;;;;;;;;;;;;;;;;;4965643;29;19934;-82
2023/03/18 16:12:32;;;;;;;;;;;;;;;;;;4953121;28;19914;-86
2023/03/18 16:14:58;;;;;;;;;;;;;;;;;;4963100;28;19921;-85
2023/03/18 16:17:23;;;;;;;;;;;;;;;;;;4963259;28;20402;-85
2023/03/18 16:19:53;;;;;;;;;;;;;;;;;;4981125;28;19918;-84
2023/03/18 16:22:19;;;;;;;;;;;;;;;;;;4959035;28;20014;-85
2023/03/18 16:24:44;;;;;;;;;;;;;;;;;;4959561;28;19954;-85
2023/03/18 16:27:10;;;;;;;;;;;;;;;;;;4975126;28;19910;-84
2023/03/18 16:29:36;;;;;;;;;;;;;;;;;;4957919;28;19922;-85
2023/03/18 16:32:02;;;;;;;;;;;;;;;;;;4958353;28;19918;-85
2023/03/18 16:34:27;;;;;;;;;;;;;;;;;;4942440;28;19980;-85
2023/03/18 16:36:53;;;;;;;;;;;;;;;;;;4975695;28;19961;-83
2023/03/18 16:39:19;;;;;;;;;;;;;;;;;;4942777;28;19918;-84